Time,TemperatureF,DewpointF,PressureIn,WindDirection,WindDirectionDegrees,WindSpeedMPH,WindSpeedGustMPH,Humidity,HourlyPrecipIn,Conditions,Clouds,dailyrainin,SolarRadiationWatts/m^2,SoftwareType,DateUTC
2013-06-07 00:03:00,69.0,63.0,-100.00,NE,46,4.0,6.0,82,0.00,,,1.02,0.000000,,2013-06-07 05:03:00,
2013-06-07 00:32:00,67.0,63.0,-100.00,ENE,64,2.0,6.0,86,0.00,,,1.02,0.000000,,2013-06-07 05:32:00,
2013-06-07 00:42:00,67.0,63.0,-100.00,ENE,64,2.0,6.0,86,0.00,,,1.02,0.000000,,2013-06-07 05:42:00,
2013-06-07 00:52:00,67.0,63.0,-100.00,ENE,64,2.0,6.0,86,0.00,,,1.02,0.000000,,2013-06-07 05:52:00,
2013-06-07 01:02:00,67.0,63.0,-100.00,ENE,64,2.0,6.0,86,0.00,,,1.02,0.000000,,2013-06-07 06:02:00,
2013-06-07 01:32:00,67.0,63.0,-100.00,NE,53,3.0,6.0,87,0.00,,,1.02,0.000000,,2013-06-07 06:32:00,
2013-06-07 01:43:00,67.0,63.0,-100.00,NE,53,3.0,6.0,87,0.00,,,1.02,0.000000,,2013-06-07 06:43:00,
2013-06-07 01:52:00,67.0,63.0,-100.00,NE,53,3.0,6.0,87,0.00,,,1.02,0.000000,,2013-06-07 06:52:00,
2013-06-07 02:02:00,67.0,63.0,-100.00,NE,53,3.0,6.0,87,0.00,,,1.02,0.000000,,2013-06-07 07:02:00,
2013-06-07 02:32:00,65.0,62.0,-100.00,NE,41,2.0,3.0,91,0.00,,,1.02,0.000000,,2013-06-07 07:32:00,
2013-06-07 02:42:00,65.0,62.0,-100.00,NE,41,2.0,3.0,91,0.00,,,1.02,0.000000,,2013-06-07 07:42:00,
2013-06-07 02:52:00,65.0,62.0,-100.00,NE,41,2.0,3.0,91,0.00,,,1.02,0.000000,,2013-06-07 07:52:00,
2013-06-07 03:02:00,65.0,62.0,-100.00,NE,41,2.0,3.0,91,0.00,,,1.02,0.000000,,2013-06-07 08:02:00,
2013-06-07 03:32:00,65.0,63.0,-100.00,NE,50,2.0,4.0,92,0.00,,,-99.99,0.000000,,2013-06-07 08:32:00,
2013-06-07 03:43:00,65.0,63.0,-100.00,NE,50,2.0,4.0,92,0.00,,,-99.99,0.000000,,2013-06-07 08:43:00,
2013-06-07 03:52:00,65.0,63.0,-100.00,NE,50,2.0,4.0,92,0.00,,,-99.99,0.000000,,2013-06-07 08:52:00,
2013-06-07 04:02:00,65.0,63.0,-100.00,NE,50,2.0,4.0,92,0.00,,,-99.99,0.000000,,2013-06-07 09:02:00,
2013-06-07 04:32:00,63.0,60.0,-100.00,SE,134,2.0,3.0,91,0.00,,,1.02,0.000000,,2013-06-07 09:32:00,
2013-06-07 04:43:00,63.0,60.0,-100.00,SE,134,2.0,3.0,91,0.00,,,1.02,0.000000,,2013-06-07 09:43:00,
2013-06-07 04:53:00,63.0,60.0,-100.00,SE,134,2.0,3.0,91,0.00,,,1.02,0.000000,,2013-06-07 09:53:00,
2013-06-07 05:02:00,63.0,60.0,-100.00,SE,134,2.0,3.0,91,0.00,,,1.02,0.000000,,2013-06-07 10:02:00,
2013-06-07 05:33:00,61.0,59.0,-100.00,ESE,119,1.0,2.0,93,0.00,,,1.01,0.000000,,2013-06-07 10:33:00,
2013-06-07 05:43:00,61.0,59.0,-100.00,ESE,119,1.0,2.0,93,0.00,,,1.01,0.000000,,2013-06-07 10:43:00,
2013-06-07 05:53:00,61.0,59.0,-100.00,ESE,119,1.0,2.0,93,0.00,,,1.01,0.000000,,2013-06-07 10:53:00,
2013-06-07 06:02:00,61.0,59.0,-100.00,ESE,119,1.0,2.0,93,0.00,,,1.01,0.000000,,2013-06-07 11:02:00,
2013-06-07 06:32:00,61.0,59.0,-100.00,ESE,108,1.0,3.0,94,0.00,,,0.33,0.000000,,2013-06-07 11:32:00,
2013-06-07 06:42:00,61.0,59.0,-100.00,ESE,108,1.0,3.0,94,0.00,,,0.33,0.000000,,2013-06-07 11:42:00,
2013-06-07 06:52:00,61.0,59.0,-100.00,ESE,108,1.0,3.0,94,0.00,,,0.33,0.000000,,2013-06-07 11:52:00,
2013-06-07 07:02:00,61.0,59.0,-100.00,ESE,108,1.0,3.0,94,0.00,,,0.33,0.000000,,2013-06-07 12:02:00,
2013-06-07 07:33:00,63.0,61.0,-100.00,ENE,78,2.0,4.0,94,0.00,,,0.33,31.000000,,2013-06-07 12:33:00,
2013-06-07 07:42:00,63.0,61.0,-100.00,ENE,78,2.0,4.0,94,0.00,,,0.33,31.000000,,2013-06-07 12:42:00,
2013-06-07 07:52:00,63.0,61.0,-100.00,ENE,78,2.0,4.0,94,0.00,,,0.33,31.000000,,2013-06-07 12:52:00,
2013-06-07 08:02:00,63.0,61.0,-100.00,ENE,78,2.0,4.0,94,0.00,,,0.33,31.000000,,2013-06-07 13:02:00,
2013-06-07 08:32:00,69.0,66.0,-100.00,NNE,20,4.0,6.0,89,0.00,,,0.32,210.000000,,2013-06-07 13:32:00,
2013-06-07 08:43:00,69.0,66.0,-100.00,NNE,20,4.0,6.0,89,0.00,,,0.32,210.000000,,2013-06-07 13:43:00,
2013-06-07 08:52:00,69.0,66.0,-100.00,NNE,20,4.0,6.0,89,0.00,,,0.32,210.000000,,2013-06-07 13:52:00,
2013-06-07 09:02:00,69.0,66.0,-100.00,NNE,20,4.0,6.0,89,0.00,,,0.32,210.000000,,2013-06-07 14:02:00,
2013-06-07 09:33:00,72.0,65.0,-100.00,NNE,26,3.0,7.0,79,0.00,,,0.32,293.000000,,2013-06-07 14:33:00,
2013-06-07 09:42:00,72.0,65.0,-100.00,NNE,26,3.0,7.0,79,0.00,,,0.32,293.000000,,2013-06-07 14:42:00,
2013-06-07 09:52:00,72.0,65.0,-100.00,NNE,26,3.0,7.0,79,0.00,,,0.32,293.000000,,2013-06-07 14:52:00,
2013-06-07 10:02:00,72.0,65.0,-100.00,NNE,26,3.0,7.0,79,0.00,,,0.32,293.000000,,2013-06-07 15:02:00,
2013-06-07 10:33:00,76.0,62.0,-100.00,NNW,343,4.0,9.0,61,0.00,,,-99.99,592.000000,,2013-06-07 15:33:00,
2013-06-07 10:43:00,76.0,62.0,-100.00,NNW,343,4.0,9.0,61,0.00,,,-99.99,592.000000,,2013-06-07 15:43:00,
2013-06-07 10:53:00,76.0,62.0,-100.00,NNW,343,4.0,9.0,61,0.00,,,-99.99,592.000000,,2013-06-07 15:53:00,
2013-06-07 11:03:00,76.0,62.0,-100.00,NNW,343,4.0,9.0,61,0.00,,,-99.99,592.000000,,2013-06-07 16:03:00,
2013-06-07 11:33:00,79.0,58.0,-100.00,NNE,12,5.0,9.0,49,0.00,,,0.32,791.000000,,2013-06-07 16:33:00,
2013-06-07 11:43:00,79.0,58.0,-100.00,NNE,12,5.0,9.0,49,0.00,,,0.32,791.000000,,2013-06-07 16:43:00,
2013-06-07 11:53:00,79.0,58.0,-100.00,NNE,12,5.0,9.0,49,0.00,,,0.32,791.000000,,2013-06-07 16:53:00,
2013-06-07 12:02:00,79.0,58.0,-100.00,NNE,12,5.0,9.0,49,0.00,,,0.32,791.000000,,2013-06-07 17:02:00,
2013-06-07 12:32:00,81.0,57.0,-100.00,NNW,331,5.0,11.0,44,0.00,,,0.32,933.000000,,2013-06-07 17:32:00,
2013-06-07 12:43:00,81.0,57.0,-100.00,NNW,331,5.0,11.0,44,0.00,,,0.32,933.000000,,2013-06-07 17:43:00,
2013-06-07 12:52:00,81.0,57.0,-100.00,NNW,331,5.0,11.0,44,0.00,,,0.32,933.000000,,2013-06-07 17:52:00,
2013-06-07 13:05:00,81.0,57.0,-100.00,NNW,331,5.0,11.0,44,0.00,,,0.32,933.000000,,2013-06-07 18:05:00,
2013-06-07 13:38:00,81.0,54.0,-100.00,North,9,5.0,12.0,40,0.00,,,0.32,1003.000000,,2013-06-07 18:38:00,
2013-06-07 13:45:00,81.0,54.0,-100.00,North,9,5.0,12.0,40,0.00,,,0.32,1003.000000,,2013-06-07 18:45:00,
2013-06-07 14:07:00,83.0,56.0,-100.00,North,357,7.0,12.0,40,0.00,,,0.02,1000.000000,,2013-06-07 19:07:00,
2013-06-07 14:40:00,83.0,56.0,-100.00,North,357,7.0,12.0,40,0.00,,,0.02,1000.000000,,2013-06-07 19:40:00,
2013-06-07 14:50:00,83.0,56.0,-100.00,North,357,7.0,12.0,40,0.00,,,0.02,1000.000000,,2013-06-07 19:50:00,
2013-06-07 14:58:00,83.0,56.0,-100.00,North,357,7.0,12.0,40,0.00,,,0.02,1000.000000,,2013-06-07 19:58:00,
2013-06-07 15:41:00,84.0,54.0,-100.00,North,4,7.0,12.0,36,0.00,,,0.00,1003.000000,,2013-06-07 20:41:00,
2013-06-07 15:58:00,84.0,54.0,-100.00,North,4,7.0,12.0,36,0.00,,,0.00,1003.000000,,2013-06-07 20:58:00,
2013-06-07 16:05:00,84.0,54.0,-100.00,North,4,7.0,12.0,36,0.00,,,0.00,1003.000000,,2013-06-07 21:05:00,
2013-06-07 16:07:00,86.0,55.0,-100.00,North,4,5.0,11.0,35,0.00,,,0.00,838.000000,,2013-06-07 21:07:00,
2013-06-07 16:43:00,86.0,55.0,-100.00,North,4,5.0,11.0,35,0.00,,,0.00,838.000000,,2013-06-07 21:43:00,
2013-06-07 17:00:00,86.0,55.0,-100.00,North,4,5.0,11.0,35,0.00,,,0.00,838.000000,,2013-06-07 22:00:00,
2013-06-07 17:39:00,85.0,54.0,-100.00,North,11,5.0,11.0,35,0.00,,,0.00,581.000000,,2013-06-07 22:39:00,
2013-06-07 17:49:00,85.0,54.0,-100.00,North,11,5.0,11.0,35,0.00,,,0.00,581.000000,,2013-06-07 22:49:00,
2013-06-07 17:59:00,85.0,54.0,-100.00,North,11,5.0,11.0,35,0.00,,,0.00,581.000000,,2013-06-07 22:59:00,
2013-06-07 18:06:00,85.0,54.0,-100.00,North,11,5.0,11.0,35,0.00,,,0.00,581.000000,,2013-06-07 23:06:00,
2013-06-07 18:07:00,83.0,53.0,-100.00,NNE,19,5.0,10.0,36,0.00,,,0.00,411.000000,,2013-06-07 23:07:00,
2013-06-07 18:54:00,83.0,53.0,-100.00,NNE,19,5.0,10.0,36,0.00,,,0.00,411.000000,,2013-06-07 23:54:00,
2013-06-07 19:03:00,83.0,53.0,-100.00,NNE,19,5.0,10.0,36,0.00,,,0.00,411.000000,,2013-06-08 00:03:00,
2013-06-07 19:32:00,81.0,52.0,-100.00,NE,40,6.0,10.0,36,0.00,,,0.00,270.000000,,2013-06-08 00:32:00,
2013-06-07 19:37:00,81.0,52.0,-100.00,NE,40,6.0,10.0,36,0.00,,,0.00,270.000000,,2013-06-08 00:37:00,
2013-06-07 19:48:00,81.0,52.0,-100.00,NE,40,6.0,10.0,36,0.00,,,0.00,270.000000,,2013-06-08 00:48:00,
2013-06-07 20:00:00,81.0,52.0,-100.00,NE,40,6.0,10.0,36,0.00,,,0.00,270.000000,,2013-06-08 01:00:00,
2013-06-07 20:07:00,77.0,53.0,-100.00,NE,56,3.0,7.0,44,0.00,,,0.00,108.000000,,2013-06-08 01:07:00,
2013-06-07 20:39:00,77.0,53.0,-100.00,NE,56,3.0,7.0,44,0.00,,,0.00,108.000000,,2013-06-08 01:39:00,
2013-06-07 20:48:00,77.0,53.0,-100.00,NE,56,3.0,7.0,44,0.00,,,0.00,108.000000,,2013-06-08 01:48:00,
2013-06-07 21:37:00,69.0,57.0,-100.00,NE,56,1.0,4.0,66,0.00,,,0.00,10.000000,,2013-06-08 02:37:00,
2013-06-07 22:40:00,67.0,57.0,-100.00,SE,133,1.0,2.0,70,-99.99,,,0.00,0.000000,,2013-06-08 03:40:00,